Hodge, California
Current Conditions -  °F | °C
As of 3:50 AM on Wednesday 26 Nov 2014 (Local Time) from KDAG Reporting Station
Clear Clear  
Wind Chill:   Ceiling: Unl
Heat Index:   Visibility: 10mi
Dew Point: -16°   Wind: 7mph
Humidity: 19%   Direction: 280°W
Pressure: 30.37"   Gusts: NA
Location:  35.1476°N, 117.206°W
Report Text: KDAG 261150Z AUTO 28006KT 10SM CLR 06/M16 A3037 RMK AO2 SLP274 T00611161 10100 20039 58001
Loading
Personal Weather Stations






























Interactive Weather Map New forecast layout! Learn more

10-Day Weather Forecast

Advertisements
Track Severe Weather on mobile